createdAt,value
2023-05-04T05:42:38.195Z,79
2023-05-04T05:44:20.892Z,81
2023-05-04T05:47:47.398Z,81
2023-05-04T05:49:30.815Z,82
2023-05-04T05:54:40.984Z,231
2023-05-04T05:56:24.381Z,245
2023-05-04T05:58:07.793Z,245
2023-05-04T05:59:51.190Z,250
2023-05-04T06:03:17.622Z,256
2023-05-04T06:05:01.009Z,259
2023-05-04T06:06:44.394Z,269
2023-05-04T06:08:27.808Z,269
2023-05-04T06:10:11.235Z,269
2023-05-04T06:11:54.610Z,266
2023-05-04T06:13:38.105Z,629
2023-05-04T06:15:21.386Z,625
2023-05-04T06:20:30.629Z,576
2023-05-04T06:22:14.040Z,586
2023-05-04T06:23:57.512Z,588
2023-05-04T06:25:40.889Z,592
2023-05-04T06:27:24.267Z,593
2023-05-04T06:29:07.700Z,588
2023-05-04T06:30:51.167Z,592
2023-05-04T06:32:34.577Z,580
2023-05-04T06:34:18.262Z,596
2023-05-04T06:36:01.654Z,612
2023-05-04T06:37:45.091Z,607
2023-05-04T06:39:28.300Z,627
2023-05-04T06:41:11.782Z,638
2023-05-04T06:42:55.078Z,640
2023-05-04T06:44:38.475Z,639
2023-05-04T06:46:21.869Z,644
2023-05-04T06:49:48.330Z,655
2023-05-04T06:51:31.748Z,652
2023-05-04T06:53:15.136Z,654
2023-05-04T06:54:58.536Z,655
2023-05-04T06:56:41.967Z,628
2023-05-04T06:58:25.339Z,661
2023-05-04T07:00:08.732Z,672
2023-05-04T07:01:52.122Z,673
2023-05-04T07:03:35.840Z,692
2023-05-04T07:05:19.216Z,683
2023-05-04T07:07:02.642Z,686
2023-05-04T07:08:46.004Z,694
2023-05-04T07:10:29.410Z,708
2023-05-04T07:12:12.816Z,704
2023-05-04T07:13:56.207Z,704
2023-05-04T07:15:39.594Z,696
2023-05-04T07:17:23.308Z,711
2023-05-04T07:19:06.696Z,705
2023-05-04T07:20:50.096Z,708
2023-05-04T07:22:33.493Z,778
2023-05-04T07:24:16.893Z,762
2023-05-04T07:26:00.295Z,755
2023-05-04T07:27:43.686Z,694
2023-05-04T07:29:27.083Z,690
2023-05-04T07:32:53.538Z,686
2023-05-04T07:34:36.947Z,690
2023-05-04T07:36:20.345Z,721
2023-05-04T07:38:03.737Z,718
2023-05-04T07:39:47.123Z,689
2023-05-04T07:41:30.526Z,719
2023-05-04T07:43:13.928Z,724
2023-05-04T07:44:57.318Z,668
2023-05-04T07:46:41.016Z,779
2023-05-04T07:48:24.425Z,771
2023-05-04T07:50:07.813Z,769
2023-05-04T07:51:51.216Z,778
2023-05-04T07:53:34.598Z,754
2023-05-04T07:55:18.012Z,757
2023-05-04T07:57:01.402Z,749
2023-05-04T07:58:44.798Z,763
2023-05-04T08:02:11.286Z,732
2023-05-04T08:03:54.668Z,761
2023-05-04T08:05:38.057Z,736
2023-05-04T08:07:21.452Z,776
2023-05-04T08:09:04.861Z,759
2023-05-04T08:10:48.251Z,738
2023-05-04T08:12:31.648Z,778
2023-05-04T08:14:15.033Z,769
2023-05-04T08:15:58.751Z,778
2023-05-04T08:17:42.146Z,778
2023-05-04T08:19:25.533Z,778
2023-05-04T08:21:08.952Z,778
2023-05-04T08:22:52.345Z,778
2023-05-04T08:24:35.734Z,778
2023-05-04T08:26:19.143Z,778
2023-05-04T08:28:02.518Z,776
2023-05-04T08:29:46.280Z,778
2023-05-04T08:31:29.622Z,778
2023-05-04T08:33:13.018Z,778
2023-05-04T08:34:56.457Z,778
2023-05-04T08:36:39.937Z,779
2023-05-04T08:38:23.215Z,778
2023-05-04T08:40:06.590Z,778
2023-05-04T08:41:50.010Z,778
2023-05-04T08:45:16.469Z,778
2023-05-04T08:46:59.862Z,778
2023-05-04T08:48:43.265Z,778
2023-05-04T08:50:26.655Z,778
2023-05-04T08:52:10.057Z,778
2023-05-04T08:53:53.453Z,778
2023-05-04T08:55:36.862Z,778
2023-05-04T08:57:20.233Z,778
2023-05-04T09:00:46.710Z,778
2023-05-04T09:02:30.111Z,779
2023-05-04T09:04:13.516Z,779
2023-05-04T09:05:56.898Z,779
2023-05-04T09:07:40.301Z,778
2023-05-04T09:09:23.699Z,778
2023-05-04T09:11:07.090Z,779
2023-05-04T09:16:16.335Z,778
2023-05-04T09:17:59.744Z,779
2023-05-04T09:19:43.110Z,778
2023-05-04T09:21:26.526Z,778
2023-05-04T09:23:09.911Z,779
2023-05-04T09:24:53.343Z,779
2023-05-04T09:26:36.706Z,778
2023-05-04T09:30:03.185Z,779
2023-05-04T09:31:46.584Z,778
2023-05-04T09:33:29.977Z,779
2023-05-04T09:35:13.378Z,778
2023-05-04T09:36:56.759Z,778
2023-05-04T09:38:40.167Z,779
2023-05-04T09:40:23.549Z,778
2023-05-04T09:43:50.038Z,778
2023-05-04T09:45:33.408Z,779
2023-05-04T09:47:16.826Z,752
2023-05-04T09:49:00.221Z,778
2023-05-04T09:50:43.616Z,719
2023-05-04T09:52:27.006Z,778
2023-05-04T09:54:10.409Z,778
2023-05-04T09:55:53.813Z,769
2023-05-04T09:57:37.490Z,778
2023-05-04T09:59:20.921Z,778
2023-05-04T10:01:04.305Z,778
2023-05-04T10:02:47.702Z,778
2023-05-04T10:04:31.096Z,778
2023-05-04T10:06:14.495Z,779
2023-05-04T10:07:57.884Z,778
2023-05-04T10:09:41.275Z,769
2023-05-04T10:11:24.980Z,778
2023-05-04T10:13:08.414Z,778
2023-05-04T10:14:51.781Z,778
2023-05-04T10:16:35.173Z,778
2023-05-04T10:18:18.567Z,778
2023-05-04T10:20:01.957Z,778
2023-05-04T10:21:45.351Z,779
2023-05-04T10:23:28.740Z,778
2023-05-04T10:25:12.457Z,778
2023-05-04T10:26:55.836Z,778
2023-05-04T10:28:39.252Z,778
2023-05-04T10:30:22.712Z,779
2023-05-04T10:32:06.042Z,779
2023-05-04T10:33:49.533Z,779
2023-05-04T10:35:32.839Z,779
2023-05-04T10:37:16.232Z,769
2023-05-04T10:38:59.922Z,779
2023-05-04T10:40:43.333Z,779
2023-05-04T10:42:26.742Z,778
2023-05-04T10:44:10.123Z,779
2023-05-04T10:45:53.521Z,779
2023-05-04T10:47:36.916Z,778
2023-05-04T10:49:20.324Z,779
2023-05-04T10:54:29.536Z,778
2023-05-04T10:56:12.939Z,778
2023-05-04T10:57:56.322Z,779
2023-05-04T10:59:39.737Z,779
2023-05-04T11:01:23.130Z,779
2023-05-04T11:03:06.515Z,779
2023-05-04T11:04:49.924Z,779
2023-05-04T11:08:16.402Z,779
2023-05-04T11:09:59.777Z,779
2023-05-04T11:11:43.182Z,779
2023-05-04T11:13:26.588Z,779
2023-05-04T11:15:09.964Z,779
2023-05-04T11:16:53.377Z,779
2023-05-04T11:18:36.769Z,779
2023-05-04T11:22:03.256Z,780
2023-05-04T11:23:46.800Z,779
2023-05-04T11:25:30.119Z,780
2023-05-04T11:27:13.425Z,778
2023-05-04T11:28:56.830Z,779
2023-05-04T11:30:40.381Z,779
2023-05-04T11:32:23.629Z,779
2023-05-04T11:35:50.089Z,779
2023-05-04T11:37:33.474Z,779
2023-05-04T11:39:16.887Z,779
2023-05-04T17:39:18.740Z,754
2023-05-04T17:42:45.509Z,532
2023-05-04T17:44:28.377Z,502
2023-05-04T17:47:54.689Z,447
2023-05-04T17:49:38.154Z,438
2023-05-04T17:51:21.567Z,438
2023-05-04T17:53:05.008Z,417
2023-05-04T17:54:48.265Z,404
2023-05-04T17:56:31.727Z,386
2023-05-04T17:58:15.112Z,369
2023-05-04T18:03:24.300Z,306
2023-05-04T18:05:07.710Z,276
2023-05-04T18:06:51.089Z,253
2023-05-04T18:08:34.523Z,233
2023-05-04T18:10:17.881Z,215
2023-05-04T18:12:01.376Z,199
2023-05-04T18:13:44.690Z,182
2023-05-04T18:18:53.917Z,146
2023-05-04T18:20:37.321Z,135
2023-05-04T18:22:20.744Z,122
2023-05-04T18:24:04.166Z,110
2023-05-04T18:25:47.601Z,97
2023-05-04T18:27:30.903Z,95
2023-05-04T18:29:14.326Z,87
2023-05-04T18:34:23.531Z,72
2023-05-04T18:36:06.954Z,65
2023-05-04T18:37:50.326Z,55
2023-05-04T18:39:33.729Z,44
2023-05-04T18:41:17.141Z,36
2023-05-04T18:43:00.530Z,30
2023-05-04T18:44:43.906Z,27
2023-05-04T18:46:27.314Z,25
2023-05-04T18:48:11.024Z,20
2023-05-04T18:49:54.422Z,16
2023-05-04T18:51:37.826Z,11
2023-05-04T18:53:21.213Z,8
2023-05-04T18:55:04.622Z,7
2023-05-04T18:56:48.013Z,6
2023-05-04T18:58:31.405Z,6
2023-05-04T19:00:14.792Z,4
2023-05-04T19:03:41.263Z,2
2023-05-04T19:05:24.784Z,3
2023-05-04T19:07:08.074Z,3
2023-05-04T19:08:51.485Z,2
2023-05-04T19:10:34.850Z,2
2023-05-04T19:12:18.249Z,2
2023-05-04T19:15:45.084Z,2
2023-05-04T19:19:11.529Z,1
2023-05-04T19:20:54.979Z,1
2023-05-04T19:22:38.313Z,2
2023-05-04T19:24:21.724Z,2
2023-05-04T19:26:05.204Z,1
2023-05-04T19:27:48.491Z,1
2023-05-04T19:29:31.900Z,1
2023-05-04T19:31:15.314Z,1
2023-05-04T19:32:58.977Z,1
2023-05-04T19:34:42.392Z,1
2023-05-04T19:36:25.835Z,1
2023-05-04T19:38:09.235Z,1
2023-05-04T19:39:52.690Z,2
2023-05-04T19:41:36.073Z,1
2023-05-04T19:43:19.437Z,2
2023-05-04T19:45:02.817Z,1
2023-05-04T19:48:29.234Z,9
2023-05-04T19:50:12.625Z,8
2023-05-04T19:51:56.037Z,9
2023-05-04T19:53:39.495Z,9
2023-05-04T19:55:22.809Z,10
2023-05-04T19:57:06.224Z,9
2023-05-04T19:58:49.633Z,9
2023-05-04T20:02:16.137Z,8
2023-05-04T20:03:59.589Z,8
2023-05-04T20:07:26.289Z,9
2023-05-04T20:09:09.738Z,9
2023-05-04T20:10:53.095Z,9
2023-05-04T20:12:36.437Z,8
2023-05-04T20:17:45.675Z,8
2023-05-04T20:19:29.083Z,8
2023-05-04T20:21:12.518Z,8
2023-05-04T20:22:55.902Z,8
2023-05-04T20:24:39.279Z,8
2023-05-04T20:26:22.678Z,8
2023-05-04T20:28:06.172Z,9
2023-05-04T20:31:32.537Z,8
2023-05-04T20:33:15.937Z,8
2023-05-04T20:34:59.435Z,8
2023-05-04T20:36:42.764Z,8
2023-05-04T20:38:26.166Z,9
2023-05-04T20:40:09.554Z,8
2023-05-04T20:41:52.901Z,8
2023-05-04T20:45:19.365Z,8
2023-05-04T20:47:02.842Z,8
2023-05-04T20:48:46.154Z,8
2023-05-04T20:50:29.564Z,9
2023-05-04T20:52:12.955Z,8
2023-05-04T20:53:56.364Z,9
2023-05-04T20:55:39.749Z,9
2023-05-04T20:59:06.293Z,8
2023-05-04T21:00:49.647Z,8
2023-05-04T21:02:33.026Z,8
2023-05-04T21:04:16.422Z,9
2023-05-04T21:05:59.817Z,8
2023-05-04T21:07:43.218Z,9
2023-05-04T21:09:26.598Z,8
2023-05-04T21:14:35.862Z,8
2023-05-04T21:16:19.262Z,9
2023-05-04T21:18:02.677Z,8
2023-05-04T21:19:46.032Z,9
2023-05-04T21:21:29.441Z,8
2023-05-04T21:23:12.817Z,9
2023-05-04T21:24:56.278Z,9
2023-05-04T21:28:22.703Z,9
2023-05-04T21:30:06.098Z,8
2023-05-04T21:31:49.486Z,8
2023-05-04T21:33:32.889Z,9
2023-05-04T21:35:16.291Z,15
2023-05-04T21:36:59.688Z,5
2023-05-04T21:38:43.074Z,7
2023-05-04T21:42:09.576Z,8
2023-05-04T21:43:52.957Z,9
2023-05-04T21:45:36.342Z,8
2023-05-04T21:47:19.796Z,9
2023-05-04T21:49:03.147Z,9
2023-05-04T21:50:46.520Z,9
2023-05-04T21:52:29.928Z,9
2023-05-04T21:57:39.182Z,8
2023-05-04T21:59:22.607Z,8
2023-05-04T22:01:05.959Z,8
2023-05-04T22:02:49.351Z,8
2023-05-04T22:04:32.780Z,8
2023-05-04T22:06:16.151Z,9
2023-05-04T22:07:59.559Z,8
2023-05-04T22:11:26.043Z,8
2023-05-04T22:13:09.423Z,8
2023-05-04T22:14:52.815Z,8
2023-05-04T22:16:36.222Z,8
2023-05-04T22:18:19.609Z,7
2023-05-04T22:20:03.026Z,7
2023-05-04T22:21:46.408Z,1
2023-05-04T22:25:12.876Z,1
2023-05-04T22:26:56.278Z,1
2023-05-04T22:28:39.661Z,1
2023-05-04T22:30:23.055Z,1
2023-05-04T22:32:06.473Z,1
2023-05-04T22:33:49.849Z,1
2023-05-04T22:35:33.286Z,1
2023-05-04T22:37:16.639Z,1
2023-05-04T22:39:00.350Z,0
2023-05-04T22:40:43.759Z,1
2023-05-04T22:42:27.144Z,1
2023-05-04T22:44:10.543Z,1
2023-05-04T22:45:53.937Z,2
2023-05-04T22:47:37.323Z,1
2023-05-04T22:49:20.735Z,1
2023-05-04T22:54:30.041Z,1
2023-05-04T22:56:13.386Z,1
2023-05-04T22:57:56.777Z,1
2023-05-04T22:59:40.177Z,1
2023-05-04T23:01:23.550Z,1
2023-05-04T23:03:06.972Z,1
2023-05-04T23:04:50.349Z,1
2023-05-04T23:08:16.824Z,1
2023-05-04T23:10:00.218Z,0
2023-05-04T23:11:43.604Z,1
2023-05-04T23:13:27.005Z,1
2023-05-04T23:15:10.413Z,1
2023-05-04T23:16:53.824Z,1
2023-05-04T23:18:37.188Z,1
2023-05-04T23:23:46.462Z,0
2023-05-04T23:25:29.825Z,1
2023-05-04T23:27:13.235Z,1
2023-05-04T23:28:56.617Z,1
2023-05-04T23:30:40.052Z,1
2023-05-04T23:32:23.434Z,1
2023-05-04T23:34:06.823Z,1
2023-05-04T23:35:50.227Z,1
2023-05-04T23:39:16.701Z,1
2023-05-04T23:41:00.106Z,0
2023-05-04T23:42:43.479Z,1
2023-05-04T23:44:26.889Z,2
2023-05-04T23:46:10.275Z,1
2023-05-04T23:47:53.677Z,1
2023-05-04T23:49:37.069Z,1
2023-05-04T23:54:46.318Z,1
2023-05-04T23:56:29.701Z,1
2023-05-04T23:58:13.108Z,1
2023-05-04T23:59:56.512Z,1
